Nanticoke — WDC4353 — position and weather

sailwx.info

Track history (hours):
 
Tides and Currents Weather Stations Pressure Air Temp Water Temp Dewpoint Dewpoint Depression Visibility Wind Speed Wind Dir Waves Ship Positions

Nanticoke

Owner: Vane Line Bunkering, Baltimore, MD. More information available from US FCC via Universal Licensing System and Coast Guard Vessel Documentation Center.

Last reported at 2015-Jan-28 23:33 UTC. Time now 2015-Jan-29 00:15 UTC.
Position N 40°40' W 074°02'.

Length 34 m; draft 4.7 m.

Type: Towing. MMSI: 367023480.

Date/timePositionNaut miles runAvg speedWind from/ knotsBaromVisibWave heightAir tempDewpointWater temp
2015-Jan-28 23:33N 40°40' W 074°02'0 0.1
2015-Jan-28 22:33N 40°40' W 074°02'6 6.3
2015-Jan-28 21:33N 40°39' W 074°10'2 1.9
2015-Jan-28 20:33N 40°38' W 074°12'0 0.0
2015-Jan-28 19:33N 40°38' W 074°12'0 0.0
2015-Jan-28 18:33N 40°38' W 074°12'0 0.0
2015-Jan-28 17:32N 40°38' W 074°12'0 0.0
2015-Jan-28 16:33N 40°38' W 074°12'3 2.6
2015-Jan-28 15:33N 40°39' W 074°09'7 6.7
2015-Jan-28 14:33N 40°40' W 074°00'0 0.0
2015-Jan-28 13:33N 40°40' W 074°00'0 0.0
2015-Jan-28 12:33N 40°40' W 074°00'0 0.0
2015-Jan-28 11:33N 40°40' W 074°00'0 0.0
2015-Jan-28 10:33N 40°40' W 074°00'0 0.0
2015-Jan-28 09:33N 40°40' W 074°00'0 0.0
2015-Jan-28 08:33N 40°40' W 074°00'0 0.0
2015-Jan-28 07:33N 40°40' W 074°00'0 0.0
2015-Jan-28 06:33N 40°40' W 074°00'0 0.0
2015-Jan-28 05:34N 40°40' W 074°00'0 0.0
2015-Jan-28 04:33N 40°40' W 074°00'0 0.0
2015-Jan-28 03:33N 40°40' W 074°00'0 0.0
2015-Jan-28 02:33N 40°40' W 074°00'0 0.0
2015-Jan-28 01:33N 40°40' W 074°00'0 0.3
2015-Jan-28 00:33N 40°40' W 074°00'0 0.0
2015-Jan-27 23:33N 40°40' W 074°00'0 0.0
2015-Jan-27 22:34N 40°40' W 074°00'9 9.1
2015-Jan-27 21:31N 40°38' W 074°12'0 0.1
2015-Jan-27 20:16N 40°38' W 074°12'3 3.9
2015-Jan-27 19:32N 40°39' W 074°09'7 7.1
2015-Jan-27 18:33N 40°43' W 074°02'5 4.9
2015-Jan-27 17:34N 40°48' W 073°59'0 0.1
2015-Jan-27 16:33N 40°47' W 073°59'0 0.0
2015-Jan-27 15:33N 40°47' W 073°59'0 0.0
2015-Jan-27 14:34N 40°47' W 073°59'0 0.0
2015-Jan-27 13:34N 40°47' W 073°59'0 0.0
2015-Jan-27 12:33N 40°47' W 073°59'0 0.0
2015-Jan-27 11:34N 40°47' W 073°59'0 0.0
2015-Jan-27 10:34N 40°47' W 073°59'0 0.1
2015-Jan-27 09:33N 40°48' W 073°59'0 0.2
2015-Jan-27 08:34N 40°48' W 073°59'0 0.0
2015-Jan-27 07:34N 40°48' W 073°59'0 0.0
2015-Jan-27 06:34N 40°48' W 073°59'0 0.2
2015-Jan-27 05:34N 40°48' W 073°59'0 0.1
2015-Jan-27 04:34N 40°47' W 073°59'0 0.0
2015-Jan-27 03:33N 40°47' W 073°59'0 0.0
2015-Jan-27 02:34N 40°47' W 073°59'0 0.0
2015-Jan-27 01:34N 40°47' W 073°59'0 0.0
2015-Jan-27 00:33N 40°48' W 073°59'0 0.0
2015-Jan-26 23:34N 40°48' W 073°59'0 0.0
2015-Jan-26 22:34N 40°48' W 073°59'0 0.0
2015-Jan-26 21:34N 40°48' W 073°59'0 0.1
2015-Jan-26 20:34N 40°48' W 073°59'0 0.2
2015-Jan-26 19:34N 40°48' W 073°59'0 0.1
2015-Jan-26 18:34N 40°48' W 073°59'0 0.1
2015-Jan-26 17:34N 40°48' W 073°59'0 0.1
2015-Jan-26 16:34N 40°48' W 073°59'0 0.1
2015-Jan-26 15:34N 40°48' W 073°59'0 0.0
2015-Jan-26 14:34N 40°48' W 073°59'0 0.0
2015-Jan-26 13:34N 40°48' W 073°59'0 0.0
2015-Jan-26 12:34N 40°48' W 073°59'0 0.0
2015-Jan-26 11:33N 40°48' W 073°59'0 0.0
2015-Jan-26 10:33N 40°48' W 073°59'0 0.0
2015-Jan-26 09:34N 40°48' W 073°59'0 0.3
2015-Jan-26 08:34N 40°48' W 073°59'0 0.0
2015-Jan-26 07:34N 40°48' W 073°59'0 0.0
2015-Jan-26 06:34N 40°48' W 073°59'0 0.0
2015-Jan-26 05:33N 40°48' W 073°59'0 0.1
2015-Jan-26 04:34N 40°48' W 073°59'0 0.2
2015-Jan-26 03:34N 40°48' W 073°59'0 0.0
2015-Jan-26 02:34N 40°48' W 073°59'1 1.3
2015-Jan-26 01:34N 40°46' W 074°00'7 7.0
2015-Jan-26 00:33N 40°40' W 074°03'0 0.1
2015-Jan-25 23:34N 40°40' W 074°03'0 0.0
2015-Jan-25 22:33N 40°40' W 074°03'0 0.0
2015-Jan-25 21:34N 40°40' W 074°03'0 0.0
2015-Jan-25 20:34N 40°40' W 074°03'0 0.1
2015-Jan-25 19:34N 40°40' W 074°03'0 0.0
2015-Jan-25 18:34N 40°40' W 074°03'0 0.0
2015-Jan-25 17:34N 40°40' W 074°03'0 0.0
2015-Jan-25 16:34N 40°40' W 074°03'0 0.0
2015-Jan-25 15:34N 40°40' W 074°03'0 0.0
2015-Jan-25 14:34N 40°40' W 074°02'0 0.1
2015-Jan-25 13:34N 40°40' W 074°03'0 0.1
2015-Jan-25 12:34N 40°40' W 074°03'2 1.9
2015-Jan-25 11:34N 40°39' W 074°05'0 0.0
2015-Jan-25 10:33N 40°39' W 074°05'0 0.0
2015-Jan-25 09:34N 40°39' W 074°05'0 0.0
2015-Jan-25 08:34N 40°39' W 074°05'2 2.2
2015-Jan-25 07:34N 40°40' W 074°02'0 0.1
2015-Jan-25 06:34N 40°40' W 074°02'0 0.1
2015-Jan-25 05:33N 40°40' W 074°02'0 0.0
2015-Jan-25 04:33N 40°40' W 074°02'0 0.0
2015-Jan-25 03:34N 40°40' W 074°02'2 1.6
2015-Jan-25 02:33N 40°40' W 074°04'0 0.0
2015-Jan-25 01:34N 40°40' W 074°04'0 0.0
2015-Jan-25 00:34N 40°40' W 074°04'0 0.0
2015-Jan-24 23:33N 40°40' W 074°04'0 0.2
2015-Jan-24 22:34N 40°40' W 074°04'1 1.0
2015-Jan-24 21:34N 40°40' W 074°03'2 2.1
2015-Jan-24 20:34N 40°40' W 074°00'0 0.0
2015-Jan-24 19:34N 40°40' W 074°00'0 0.0
2015-Jan-24 18:34N 40°40' W 074°00'0 0.0
2015-Jan-24 17:34N 40°40' W 074°00'1 1.2
2015-Jan-24 16:33N 40°39' W 074°02'3 2.7
2015-Jan-24 15:34N 40°39' W 074°05'3 3.0
2015-Jan-24 14:33N 40°39' W 074°09'2 2.1
2015-Jan-24 13:33N 40°41' W 074°10'0 0.0
2015-Jan-24 12:34N 40°41' W 074°10'4 3.9
2015-Jan-24 11:33N 40°38' W 074°12'0 0.2
2015-Jan-24 10:34N 40°38' W 074°12'0 0.0
2015-Jan-24 09:34N 40°38' W 074°12'0 0.0
2015-Jan-24 08:33N 40°38' W 074°12'0 0.0
2015-Jan-24 07:34N 40°38' W 074°12'2 0.2
2015-Jan-23 21:33N 40°39' W 074°11'8 7.8
2015-Jan-23 20:33N 40°40' W 074°01'6 6.5
2015-Jan-23 19:33N 40°38' W 074°09'3 0.4
2015-Jan-23 11:25N 40°36' W 074°12'1 1.4
2015-Jan-23 10:33N 40°38' W 074°12'6 5.9
2015-Jan-23 09:34N 40°39' W 074°05'4 4.2
2015-Jan-23 08:33N 40°41' W 074°00'0 0.1
2015-Jan-23 07:33N 40°41' W 074°00'0 0.0
2015-Jan-23 06:33N 40°41' W 074°00'0 0.0
2015-Jan-23 05:33N 40°41' W 074°00'0 0.0
2015-Jan-23 04:34N 40°41' W 074°00'0 0.0
2015-Jan-23 03:32N 40°41' W 074°00'2 2.3
2015-Jan-23 02:33N 40°40' W 074°03'2 2.2
2015-Jan-23 01:33N 40°41' W 074°00'0 0.0
2015-Jan-23 00:33N 40°41' W 074°00'0 0.0
2015-Jan-22 23:34N 40°41' W 074°00'0 0.0
2015-Jan-22 22:33N 40°41' W 074°00'1 1.3
2015-Jan-22 21:34N 40°40' W 074°00'0 0.0
2015-Jan-22 20:34N 40°40' W 074°00'0 0.0
2015-Jan-22 19:33N 40°40' W 074°00'0 0.0
2015-Jan-22 18:34N 40°40' W 074°00'0 0.0
2015-Jan-22 17:33N 40°40' W 074°00'0 0.0
2015-Jan-22 16:34N 40°40' W 074°00'0 0.0
2015-Jan-22 15:34N 40°40' W 074°00'0 0.0
2015-Jan-22 14:34N 40°40' W 074°00'0 0.1
2015-Jan-22 13:34N 40°40' W 074°00'0 0.2
2015-Jan-22 12:34N 40°40' W 074°00'0 0.0
2015-Jan-22 11:33N 40°40' W 074°00'0 0.0
2015-Jan-22 10:34N 40°40' W 074°00'0 0.0
2015-Jan-22 09:34N 40°40' W 074°00'0 0.0
2015-Jan-22 08:33N 40°40' W 074°00'0 0.0
2015-Jan-22 07:34N 40°40' W 074°00'0 0.0
2015-Jan-22 06:33N 40°40' W 074°00'0 0.0
2015-Jan-22 05:33N 40°40' W 074°00'0 0.0
2015-Jan-22 04:33N 40°40' W 074°00'0 0.0
2015-Jan-22 03:34N 40°40' W 074°00'0 0.0
2015-Jan-22 02:33N 40°40' W 074°00'0 0.0
2015-Jan-22 01:34N 40°40' W 074°00'0 0.0
2015-Jan-22 00:34N 40°40' W 074°00'0 0.0
2015-Jan-21 23:33N 40°40' W 074°00'0 0.0
2015-Jan-21 22:50N 40°40' W 074°00'0 0.0
2015-Jan-21 22:46N 40°40' W 074°00'0 0.0
2015-Jan-21 22:34N 40°40' W 074°00'0 0.0
2015-Jan-21 21:33N 40°40' W 074°00'0 0.0
2015-Jan-21 20:34N 40°40' W 074°00'0 0.0
2015-Jan-21 19:34N 40°40' W 074°00'0 0.0
2015-Jan-21 18:33N 40°40' W 074°00'0 0.0
2015-Jan-21 17:33N 40°40' W 074°00'0 0.2
2015-Jan-21 16:33N 40°40' W 074°00'1 1.4
2015-Jan-21 15:34N 40°41' W 074°00'0 0.0
2015-Jan-21 14:33N 40°41' W 074°00'0 0.0
2015-Jan-21 13:34N 40°41' W 074°00'4 4.3
2015-Jan-21 12:33N 40°39' W 074°05'0 0.0
2015-Jan-21 11:33N 40°39' W 074°05'0 0.0
2015-Jan-21 10:33N 40°39' W 074°05'1 1.3
2015-Jan-21 09:34N 40°39' W 074°03'1 1.4
2015-Jan-21 08:33N 40°39' W 074°05'0 0.0
2015-Jan-21 07:33N 40°39' W 074°05'4 3.9
2015-Jan-21 06:34N 40°40' W 074°00'0 0.0
2015-Jan-21 05:33N 40°40' W 074°00'0 0.0
2015-Jan-21 04:33N 40°40' W 074°00'0 0.0
2015-Jan-21 03:34N 40°40' W 074°00'4 3.9
2015-Jan-21 02:34N 40°39' W 074°05'0 0.0
2015-Jan-21 01:33N 40°39' W 074°05'0 0.0
2015-Jan-21 00:33N 40°39' W 074°05'0 0.0
2015-Jan-20 23:34N 40°39' W 074°05'0 0.0
2015-Jan-20 22:34N 40°39' W 074°05'0 0.1
2015-Jan-20 21:33N 40°39' W 074°05'0 0.0
2015-Jan-20 20:33N 40°39' W 074°05'0 0.0
2015-Jan-20 19:34N 40°39' W 074°05'1 1.3
2015-Jan-20 18:33N 40°38' W 074°04'0 0.0
2015-Jan-20 17:34N 40°38' W 074°04'0 0.1
2015-Jan-20 16:33N 40°38' W 074°04'6 6.4
2015-Jan-20 15:34N 40°38' W 074°12'0 0.2
2015-Jan-20 14:34N 40°38' W 074°12'0 0.0
2015-Jan-20 13:33N 40°38' W 074°12'0 0.0
2015-Jan-20 12:34N 40°38' W 074°12'0 0.0
2015-Jan-20 11:33N 40°38' W 074°12'0 0.0
2015-Jan-19 21:33N 40°37' W 074°12'2 2.4
2015-Jan-19 20:33N 40°39' W 074°10'8 7.7
2015-Jan-19 19:33N 40°41' W 074°00'0 0.1
2015-Jan-19 18:33N 40°41' W 074°00'0 0.0
2015-Jan-19 17:33N 40°41' W 074°00'1 1.4
2015-Jan-19 16:33N 40°40' W 074°01'1 0.6
2015-Jan-19 15:34N 40°40' W 074°01'2 0.7
2015-Jan-19 13:10N 40°41' W 074°00'0 0.0
2015-Jan-19 12:34N 40°41' W 074°00'0 0.0
2015-Jan-19 11:34N 40°41' W 074°00'0 0.0
2015-Jan-19 10:33N 40°41' W 074°00'0 0.0
2015-Jan-19 09:33N 40°41' W 074°00'0 0.0
2015-Jan-19 08:33N 40°41' W 074°00'0 0.0
2015-Jan-19 07:33N 40°41' W 074°00'0 0.0
2015-Jan-19 06:33N 40°41' W 074°00'0 0.0
2015-Jan-19 05:34N 40°41' W 074°00'0 0.0
2015-Jan-19 04:34N 40°41' W 074°00'0 0.0
2015-Jan-19 03:34N 40°41' W 074°00'0 0.0
2015-Jan-19 02:34N 40°41' W 074°00'0 0.0
2015-Jan-19 01:33N 40°41' W 074°00'0 0.0
2015-Jan-19 00:33N 40°41' W 074°00'0 0.0
2015-Jan-18 23:34N 40°41' W 074°00'  
Track history (hours):
 
Tides and Currents Weather Stations Pressure Air Temp Water Temp Dewpoint Dewpoint Depression Visibility Wind Speed Wind Dir Waves Ship Positions

Nanticoke

Owner: Vane Line Bunkering, Baltimore, MD. More information available from US FCC via Universal Licensing System and Coast Guard Vessel Documentation Center.

Last reported at 2015-Jan-28 23:33 UTC. Time now 2015-Jan-29 00:15 UTC.
Position N 40°40' W 074°02'.

Length 34 m; draft 4.7 m.

Type: Towing. MMSI: 367023480.

Date/timePositionNaut miles runAvg speedWind from/ knotsBaromVisibWave heightAir tempDewpointWater temp
2015-Jan-28 23:33N 40°40' W 074°02'0 0.1
2015-Jan-28 22:33N 40°40' W 074°02'6 6.3
2015-Jan-28 21:33N 40°39' W 074°10'2 1.9
2015-Jan-28 20:33N 40°38' W 074°12'0 0.0
2015-Jan-28 19:33N 40°38' W 074°12'0 0.0
2015-Jan-28 18:33N 40°38' W 074°12'0 0.0
2015-Jan-28 17:32N 40°38' W 074°12'0 0.0
2015-Jan-28 16:33N 40°38' W 074°12'3 2.6
2015-Jan-28 15:33N 40°39' W 074°09'7 6.7
2015-Jan-28 14:33N 40°40' W 074°00'0 0.0
2015-Jan-28 13:33N 40°40' W 074°00'0 0.0
2015-Jan-28 12:33N 40°40' W 074°00'0 0.0
2015-Jan-28 11:33N 40°40' W 074°00'0 0.0
2015-Jan-28 10:33N 40°40' W 074°00'0 0.0
2015-Jan-28 09:33N 40°40' W 074°00'0 0.0
2015-Jan-28 08:33N 40°40' W 074°00'0 0.0
2015-Jan-28 07:33N 40°40' W 074°00'0 0.0
2015-Jan-28 06:33N 40°40' W 074°00'0 0.0
2015-Jan-28 05:34N 40°40' W 074°00'0 0.0
2015-Jan-28 04:33N 40°40' W 074°00'0 0.0
2015-Jan-28 03:33N 40°40' W 074°00'0 0.0
2015-Jan-28 02:33N 40°40' W 074°00'0 0.0
2015-Jan-28 01:33N 40°40' W 074°00'0 0.3
2015-Jan-28 00:33N 40°40' W 074°00'0 0.0
2015-Jan-27 23:33N 40°40' W 074°00'0 0.0
2015-Jan-27 22:34N 40°40' W 074°00'9 9.1
2015-Jan-27 21:31N 40°38' W 074°12'0 0.1
2015-Jan-27 20:16N 40°38' W 074°12'3 3.9
2015-Jan-27 19:32N 40°39' W 074°09'7 7.1
2015-Jan-27 18:33N 40°43' W 074°02'5 4.9
2015-Jan-27 17:34N 40°48' W 073°59'0 0.1
2015-Jan-27 16:33N 40°47' W 073°59'0 0.0
2015-Jan-27 15:33N 40°47' W 073°59'0 0.0
2015-Jan-27 14:34N 40°47' W 073°59'0 0.0
2015-Jan-27 13:34N 40°47' W 073°59'0 0.0
2015-Jan-27 12:33N 40°47' W 073°59'0 0.0
2015-Jan-27 11:34N 40°47' W 073°59'0 0.0
2015-Jan-27 10:34N 40°47' W 073°59'0 0.1
2015-Jan-27 09:33N 40°48' W 073°59'0 0.2
2015-Jan-27 08:34N 40°48' W 073°59'0 0.0
2015-Jan-27 07:34N 40°48' W 073°59'0 0.0
2015-Jan-27 06:34N 40°48' W 073°59'0 0.2
2015-Jan-27 05:34N 40°48' W 073°59'0 0.1
2015-Jan-27 04:34N 40°47' W 073°59'0 0.0
2015-Jan-27 03:33N 40°47' W 073°59'0 0.0
2015-Jan-27 02:34N 40°47' W 073°59'0 0.0
2015-Jan-27 01:34N 40°47' W 073°59'0 0.0
2015-Jan-27 00:33N 40°48' W 073°59'0 0.0
2015-Jan-26 23:34N 40°48' W 073°59'0 0.0
2015-Jan-26 22:34N 40°48' W 073°59'0 0.0
2015-Jan-26 21:34N 40°48' W 073°59'0 0.1
2015-Jan-26 20:34N 40°48' W 073°59'0 0.2
2015-Jan-26 19:34N 40°48' W 073°59'0 0.1
2015-Jan-26 18:34N 40°48' W 073°59'0 0.1
2015-Jan-26 17:34N 40°48' W 073°59'0 0.1
2015-Jan-26 16:34N 40°48' W 073°59'0 0.1
2015-Jan-26 15:34N 40°48' W 073°59'0 0.0
2015-Jan-26 14:34N 40°48' W 073°59'0 0.0
2015-Jan-26 13:34N 40°48' W 073°59'0 0.0
2015-Jan-26 12:34N 40°48' W 073°59'0 0.0
2015-Jan-26 11:33N 40°48' W 073°59'0 0.0
2015-Jan-26 10:33N 40°48' W 073°59'0 0.0
2015-Jan-26 09:34N 40°48' W 073°59'0 0.3
2015-Jan-26 08:34N 40°48' W 073°59'0 0.0
2015-Jan-26 07:34N 40°48' W 073°59'0 0.0
2015-Jan-26 06:34N 40°48' W 073°59'0 0.0
2015-Jan-26 05:33N 40°48' W 073°59'0 0.1
2015-Jan-26 04:34N 40°48' W 073°59'0 0.2
2015-Jan-26 03:34N 40°48' W 073°59'0 0.0
2015-Jan-26 02:34N 40°48' W 073°59'1 1.3
2015-Jan-26 01:34N 40°46' W 074°00'7 7.0
2015-Jan-26 00:33N 40°40' W 074°03'0 0.1
2015-Jan-25 23:34N 40°40' W 074°03'0 0.0
2015-Jan-25 22:33N 40°40' W 074°03'0 0.0
2015-Jan-25 21:34N 40°40' W 074°03'0 0.0
2015-Jan-25 20:34N 40°40' W 074°03'0 0.1
2015-Jan-25 19:34N 40°40' W 074°03'0 0.0
2015-Jan-25 18:34N 40°40' W 074°03'0 0.0
2015-Jan-25 17:34N 40°40' W 074°03'0 0.0
2015-Jan-25 16:34N 40°40' W 074°03'0 0.0
2015-Jan-25 15:34N 40°40' W 074°03'0 0.0
2015-Jan-25 14:34N 40°40' W 074°02'0 0.1
2015-Jan-25 13:34N 40°40' W 074°03'0 0.1
2015-Jan-25 12:34N 40°40' W 074°03'2 1.9
2015-Jan-25 11:34N 40°39' W 074°05'0 0.0
2015-Jan-25 10:33N 40°39' W 074°05'0 0.0
2015-Jan-25 09:34N 40°39' W 074°05'0 0.0
2015-Jan-25 08:34N 40°39' W 074°05'2 2.2
2015-Jan-25 07:34N 40°40' W 074°02'0 0.1
2015-Jan-25 06:34N 40°40' W 074°02'0 0.1
2015-Jan-25 05:33N 40°40' W 074°02'0 0.0
2015-Jan-25 04:33N 40°40' W 074°02'0 0.0
2015-Jan-25 03:34N 40°40' W 074°02'2 1.6
2015-Jan-25 02:33N 40°40' W 074°04'0 0.0
2015-Jan-25 01:34N 40°40' W 074°04'0 0.0
2015-Jan-25 00:34N 40°40' W 074°04'0 0.0
2015-Jan-24 23:33N 40°40' W 074°04'0 0.2
2015-Jan-24 22:34N 40°40' W 074°04'1 1.0
2015-Jan-24 21:34N 40°40' W 074°03'2 2.1
2015-Jan-24 20:34N 40°40' W 074°00'0 0.0
2015-Jan-24 19:34N 40°40' W 074°00'0 0.0
2015-Jan-24 18:34N 40°40' W 074°00'0 0.0
2015-Jan-24 17:34N 40°40' W 074°00'1 1.2
2015-Jan-24 16:33N 40°39' W 074°02'3 2.7
2015-Jan-24 15:34N 40°39' W 074°05'3 3.0
2015-Jan-24 14:33N 40°39' W 074°09'2 2.1
2015-Jan-24 13:33N 40°41' W 074°10'0 0.0
2015-Jan-24 12:34N 40°41' W 074°10'4 3.9
2015-Jan-24 11:33N 40°38' W 074°12'0 0.2
2015-Jan-24 10:34N 40°38' W 074°12'0 0.0
2015-Jan-24 09:34N 40°38' W 074°12'0 0.0
2015-Jan-24 08:33N 40°38' W 074°12'0 0.0
2015-Jan-24 07:34N 40°38' W 074°12'2 0.2
2015-Jan-23 21:33N 40°39' W 074°11'8 7.8
2015-Jan-23 20:33N 40°40' W 074°01'6 6.5
2015-Jan-23 19:33N 40°38' W 074°09'3 0.4
2015-Jan-23 11:25N 40°36' W 074°12'1 1.4
2015-Jan-23 10:33N 40°38' W 074°12'6 5.9
2015-Jan-23 09:34N 40°39' W 074°05'4 4.2
2015-Jan-23 08:33N 40°41' W 074°00'0 0.1
2015-Jan-23 07:33N 40°41' W 074°00'0 0.0
2015-Jan-23 06:33N 40°41' W 074°00'0 0.0
2015-Jan-23 05:33N 40°41' W 074°00'0 0.0
2015-Jan-23 04:34N 40°41' W 074°00'0 0.0
2015-Jan-23 03:32N 40°41' W 074°00'2 2.3
2015-Jan-23 02:33N 40°40' W 074°03'2 2.2
2015-Jan-23 01:33N 40°41' W 074°00'0 0.0
2015-Jan-23 00:33N 40°41' W 074°00'0 0.0
2015-Jan-22 23:34N 40°41' W 074°00'0 0.0
2015-Jan-22 22:33N 40°41' W 074°00'1 1.3
2015-Jan-22 21:34N 40°40' W 074°00'0 0.0
2015-Jan-22 20:34N 40°40' W 074°00'0 0.0
2015-Jan-22 19:33N 40°40' W 074°00'0 0.0
2015-Jan-22 18:34N 40°40' W 074°00'0 0.0
2015-Jan-22 17:33N 40°40' W 074°00'0 0.0
2015-Jan-22 16:34N 40°40' W 074°00'0 0.0
2015-Jan-22 15:34N 40°40' W 074°00'0 0.0
2015-Jan-22 14:34N 40°40' W 074°00'0 0.1
2015-Jan-22 13:34N 40°40' W 074°00'0 0.2
2015-Jan-22 12:34N 40°40' W 074°00'0 0.0
2015-Jan-22 11:33N 40°40' W 074°00'0 0.0
2015-Jan-22 10:34N 40°40' W 074°00'0 0.0
2015-Jan-22 09:34N 40°40' W 074°00'0 0.0
2015-Jan-22 08:33N 40°40' W 074°00'0 0.0
2015-Jan-22 07:34N 40°40' W 074°00'0 0.0
2015-Jan-22 06:33N 40°40' W 074°00'0 0.0
2015-Jan-22 05:33N 40°40' W 074°00'0 0.0
2015-Jan-22 04:33N 40°40' W 074°00'0 0.0
2015-Jan-22 03:34N 40°40' W 074°00'0 0.0
2015-Jan-22 02:33N 40°40' W 074°00'0 0.0
2015-Jan-22 01:34N 40°40' W 074°00'0 0.0
2015-Jan-22 00:34N 40°40' W 074°00'0 0.0
2015-Jan-21 23:33N 40°40' W 074°00'0 0.0
2015-Jan-21 22:50N 40°40' W 074°00'0 0.0
2015-Jan-21 22:46N 40°40' W 074°00'0 0.0
2015-Jan-21 22:34N 40°40' W 074°00'0 0.0
2015-Jan-21 21:33N 40°40' W 074°00'0 0.0
2015-Jan-21 20:34N 40°40' W 074°00'0 0.0
2015-Jan-21 19:34N 40°40' W 074°00'0 0.0
2015-Jan-21 18:33N 40°40' W 074°00'0 0.0
2015-Jan-21 17:33N 40°40' W 074°00'0 0.2
2015-Jan-21 16:33N 40°40' W 074°00'1 1.4
2015-Jan-21 15:34N 40°41' W 074°00'0 0.0
2015-Jan-21 14:33N 40°41' W 074°00'0 0.0
2015-Jan-21 13:34N 40°41' W 074°00'4 4.3
2015-Jan-21 12:33N 40°39' W 074°05'0 0.0
2015-Jan-21 11:33N 40°39' W 074°05'0 0.0
2015-Jan-21 10:33N 40°39' W 074°05'1 1.3
2015-Jan-21 09:34N 40°39' W 074°03'1 1.4
2015-Jan-21 08:33N 40°39' W 074°05'0 0.0
2015-Jan-21 07:33N 40°39' W 074°05'4 3.9
2015-Jan-21 06:34N 40°40' W 074°00'0 0.0
2015-Jan-21 05:33N 40°40' W 074°00'0 0.0
2015-Jan-21 04:33N 40°40' W 074°00'0 0.0
2015-Jan-21 03:34N 40°40' W 074°00'4 3.9
2015-Jan-21 02:34N 40°39' W 074°05'0 0.0
2015-Jan-21 01:33N 40°39' W 074°05'0 0.0
2015-Jan-21 00:33N 40°39' W 074°05'0 0.0
2015-Jan-20 23:34N 40°39' W 074°05'0 0.0
2015-Jan-20 22:34N 40°39' W 074°05'0 0.1
2015-Jan-20 21:33N 40°39' W 074°05'0 0.0
2015-Jan-20 20:33N 40°39' W 074°05'0 0.0
2015-Jan-20 19:34N 40°39' W 074°05'1 1.3
2015-Jan-20 18:33N 40°38' W 074°04'0 0.0
2015-Jan-20 17:34N 40°38' W 074°04'0 0.1
2015-Jan-20 16:33N 40°38' W 074°04'6 6.4
2015-Jan-20 15:34N 40°38' W 074°12'0 0.2
2015-Jan-20 14:34N 40°38' W 074°12'0 0.0
2015-Jan-20 13:33N 40°38' W 074°12'0 0.0
2015-Jan-20 12:34N 40°38' W 074°12'0 0.0
2015-Jan-20 11:33N 40°38' W 074°12'0 0.0
2015-Jan-19 21:33N 40°37' W 074°12'2 2.4
2015-Jan-19 20:33N 40°39' W 074°10'8 7.7
2015-Jan-19 19:33N 40°41' W 074°00'0 0.1
2015-Jan-19 18:33N 40°41' W 074°00'0 0.0
2015-Jan-19 17:33N 40°41' W 074°00'1 1.4
2015-Jan-19 16:33N 40°40' W 074°01'1 0.6
2015-Jan-19 15:34N 40°40' W 074°01'2 0.7
2015-Jan-19 13:10N 40°41' W 074°00'0 0.0
2015-Jan-19 12:34N 40°41' W 074°00'0 0.0
2015-Jan-19 11:34N 40°41' W 074°00'0 0.0
2015-Jan-19 10:33N 40°41' W 074°00'0 0.0
2015-Jan-19 09:33N 40°41' W 074°00'0 0.0
2015-Jan-19 08:33N 40°41' W 074°00'0 0.0
2015-Jan-19 07:33N 40°41' W 074°00'0 0.0
2015-Jan-19 06:33N 40°41' W 074°00'0 0.0
2015-Jan-19 05:34N 40°41' W 074°00'0 0.0
2015-Jan-19 04:34N 40°41' W 074°00'0 0.0
2015-Jan-19 03:34N 40°41' W 074°00'0 0.0
2015-Jan-19 02:34N 40°41' W 074°00'0 0.0
2015-Jan-19 01:33N 40°41' W 074°00'0 0.0
2015-Jan-19 00:33N 40°41' W 074°00'0 0.0
2015-Jan-18 23:34N 40°41' W 074°00'  

Dump ship's entire track history